KJCT

Kimble County Airport

Junction, Texas, USA
KJCT 251548Z 2516/2612 19010KT P6SM BKN025 FM251700 18010KT P6SM BKN040 FM252100 16008KT P6SM FEW040
Issued Valid From Valid To
Sep-25 @ 15:48 UTC
(2 hours ago)
Sep-25 @ 16:00 UTC
(an hour ago)
Sep-26 @ 12:00 UTC
(in 19 hours)
Expired Click to View Sep-25 @ 16:00 to Sep-25 @ 17:00
KJCT 251548Z 2516/2612 19010KT P6SM BKN025
Wind Visibility Clouds
190° at 10 knots Greater than 6 miles
  • Broken at 2,500' AGL
From Sep-25 @ 17:00 to Sep-25 @ 21:00
FM251700 18010KT P6SM BKN040
Wind Visibility Clouds
180° at 10 knots Greater than 6 miles
  • Broken at 4,000' AGL
From Sep-25 @ 21:00 to Sep-26 @ 12:00
FM252100 16008KT P6SM FEW040
Wind Visibility Clouds
160° at 8 knots Greater than 6 miles
  • Few at 4,000' AGL
KJCT 251548Z 2516/2612 19010KT P6SM BKN025 FM251700 18010KT P6SM BKN040 FM252100 16008KT P6SM FEW040
Issued Sep-25 @ 15:48 UTC
(2 hours ago)
Valid From Sep-25 @ 16:00 UTC
(an hour ago)
Valid To Sep-26 @ 12:00 UTC
(in 19 hours)
Sep-25 @ 16:00 - Sep-25 @ 17:00
Wind Visibility
190° at 10 knots Greater than 6 miles
Clouds
  • Broken at 2,500' AGL
From Sep-25 @ 17:00 - Sep-25 @ 21:00
Wind Visibility
180° at 10 knots Greater than 6 miles
Clouds
  • Broken at 4,000' AGL
From Sep-25 @ 21:00 - Sep-26 @ 12:00
Wind Visibility
160° at 8 knots Greater than 6 miles
Clouds
  • Few at 4,000' AGL